Station: Cooma Airport

  Atmospheric Gas Attenuation - ITU Rec 676-11   --------------- db/100km ---------------
Date Time Temp RH % AH g/m3 Dew Point Wind Direction Speed kph Gust kph Barometer mB Rainfall Since 9am 24GHz 47GHz 76GHz 122GHz 134GHz 241GHz
22 12:30 20.1 56 9.73 11.1 17 24 1021.8 0 21.7 26.2 41.4 108.7 105.5 364.1
22 12:20 19.9 52 8.93 9.8 20 24 1022.4 0 20.0 25.0 38.5 100.9 95.8 330.1
22 12:10 19.8 53 9.05 10 19 24 1022.5 0 20.2 25.2 39.0 102.3 97.4 335.7
22 12:00 19.3 48 7.96 8 20 28 1022 0 18.0 23.7 35.2 92.0 84.6 290.8
22 11:50 19.3 57 9.45 10.6 17 20 1022.6 0 21.1 26.0 40.8 107.0 103.1 355.5
22 11:40 19.6 58 9.79 11.1 20 24 1022.8 0 21.8 26.4 42.0 110.2 107.0 369.4
22 11:30 18.7 55 8.8 9.5 15 24 1022.4 0 19.8 25.2 38.6 101.1 95.6 329.3
22 11:20 18.8 57 9.18 10.1 17 19 1023 0 20.6 25.7 40.0 104.9 100.3 345.8
22 11:10 18.3 56 8.76 9.4 17 20 1023 0 19.7 25.2 38.6 101.3 95.7 329.4
22 11:00 18.3 57 8.91 9.6 15 22 1022.7 0 20.0 25.4 39.2 102.8 97.5 335.9
22 10:50 18.2 58 9.01 9.8 20 24 1023.1 0 20.2 25.6 39.7 104.0 99.0 340.9
22 10:40 18 61 9.37 10.4 17 19 1023.2 0 21.0 26.3 41.2 108.0 103.8 357.9
22 10:30 17.5 64 9.54 10.6 17 28 1022.9 0 21.4 26.7 42.1 110.5 106.7 367.9
22 10:20 17.3 64 9.43 10.4 19 24 1023.4 0 21.2 26.6 41.8 109.6 105.6 363.9
22 10:10 16.8 64 9.15 10 13 15 1023.5 0 20.6 26.3 40.9 107.4 102.6 353.4
22 10:00 16.9 67 9.64 10.7 13 19 1023 0 21.6 27.0 42.8 112.4 108.8 375.3
22 09:50 16.4 70 9.77 10.9 7 11 1023.6 0 21.9 27.4 43.6 114.6 111.3 384.0
22 09:40 15.6 67 8.91 9.5 13 15 1023.6 0 20.1 26.3 40.6 106.4 101.0 347.8
22 09:30 15.8 71 9.56 10.6 15 20 1023.1 0 21.5 27.2 43.1 113.1 109.3 376.9
22 09:20 15.5 73 9.65 10.7 15 17 1023.6 0 21.7 27.5 43.6 114.6 111.0 382.7
22 09:10 15 78 10 11.2 13 17 1023.7 0 22.5 28.2 45.4 119.2 116.5 401.9
22 09:00 14.1 79 9.59 10.5 13 17 1023.1 0 21.7 27.8 44.1 115.9 112.2 386.6
22 08:50 13.8 80 9.53 10.4 11 13 1023.6 0 21.6 27.8 44.1 115.7 111.8 385.4
22 08:40 13.9 85 10.19 11.4 11 13 1023.7 0 23.0 28.9 46.8 123.1 120.9 417.0
22 08:30 13.4 89 10.35 11.6 9 11 1023.3 0 23.3 29.3 47.8 125.6 123.9 427.5
22 08:20 12.5 91 10.01 11.1 7 7 1023.9 0 22.7 29.1 46.9 123.2 120.5 415.7
22 08:10 12 95 10.13 11.2 7 7 1023.9 0 23.0 29.5 47.7 125.4 123.1 424.4
22 08:00 11 98 9.81 10.7 2 6 1023.4 0 22.3 29.2 46.9 123.2 120.0 413.5
22 07:50 10.4 99 9.54 10.2 4 6 1023.9 0 21.8 29.0 46.1 121.1 117.1 403.3
22 07:40 9.7 99 9.13 9.6 6 6 1023.8 0 20.9 28.5 44.7 117.4 112.2 386.2
22 07:30 9.1 99 8.79 9 0 0 1023.2 0 20.2 28.0 43.5 114.2 108.2 371.9
22 07:20 8.2 99 8.29 8.1 0 0 1023.8 0 19.2 27.5 41.9 109.8 102.3 351.3
22 07:10 7.4 99 7.88 7.3 0 0 1023.7 0 18.3 27.0 40.5 106.2 97.6 334.5
22 07:00 6.5 99 7.43 6.4 0 0 1023.2 0 17.4 26.5 39.0 102.2 92.3 315.9
22 06:50 6 99 7.19 5.9 0 0 1023.6 0 16.9 26.2 38.3 100.2 89.5 306.2
22 06:40 5.6 99 7 5.5 0 0 1023.5 0 16.5 26.0 37.7 98.5 87.3 298.4
22 06:30 4.9 99 6.69 4.8 0 0 1023 0 15.9 25.7 36.7 95.8 83.7 285.7
22 06:20 4.3 99 6.43 4.2 0 0 1023.5 0 15.3 25.4 35.9 93.7 80.8 275.3
22 06:10 4.3 99 6.43 4.2 0 0 1023.5 0 15.3 25.4 35.9 93.7 80.8 275.3
22 06:00 4.2 99 6.38 4.1 0 0 1022.9 0 15.2 25.4 35.7 93.2 80.1 273.1
22 05:50 4.5 99 6.51 4.4 0 0 1023.4 0 15.5 25.5 36.1 94.3 81.7 278.5
22 05:30 5.3 99 6.87 5.2 0 0 1022.7 0 16.3 25.9 37.2 97.3 85.8 293.0
22 05:20 5.8 99 7.1 5.7 0 0 1023.1 0 16.7 26.1 38.0 99.3 88.5 302.4
22 05:10 5 99 6.73 4.9 2 6 1023 0 16.0 25.7 36.8 96.1 84.2 287.3
22 05:00 5.2 99 6.82 5.1 0 7 1022.7 0 16.1 25.8 37.1 96.9 85.2 290.9
22 04:50 4.8 99 6.64 4.7 0 0 1023.4 0 15.8 25.6 36.5 95.4 83.2 283.7
22 04:40 4.8 99 6.64 4.7 0 0 1023.4 0 15.8 25.6 36.5 95.4 83.2 283.7
22 04:30 5 99 6.73 4.9 0 0 1023 0 16.0 25.7 36.8 96.1 84.2 287.3
22 04:20 5.3 99 6.87 5.2 0 0 1023.4 0 16.3 25.9 37.2 97.4 85.8 293.1
22 04:10 5.7 99 7.05 5.6 0 0 1023.4 0 16.6 26.1 37.8 98.9 87.9 300.5
22 04:00 5.6 99 7 5.5 0 0 1023 0 16.5 26.0 37.6 98.5 87.3 298.3
22 03:50 5.8 99 7.1 5.7 0 0 1023.7 0 16.7 26.1 38.0 99.4 88.5 302.6
22 03:40 5.5 99 6.96 5.4 0 0 1023.8 0 16.4 26.0 37.6 98.2 86.9 296.9
22 03:30 5.3 99 6.87 5.2 0 0 1023.5 0 16.3 25.9 37.3 97.4 85.8 293.2
22 03:20 5.3 99 6.87 5.2 0 0 1024.1 0 16.3 25.9 37.3 97.5 85.9 293.3
22 03:10 5.8 98 7.02 5.5 0 0 1024 0 16.6 26.0 37.7 98.5 87.4 298.7
22 03:00 5.1 98 6.71 4.8 0 0 1023.9 0 15.9 25.7 36.7 95.9 83.8 286.2
22 02:50 6.5 99 7.43 6.4 0 0 1024.5 0 17.4 26.5 39.1 102.3 92.4 316.3
22 02:40 6.3 98 7.26 6 0 0 1024.6 0 17.0 26.3 38.5 100.7 90.2 308.7
22 02:30 5.9 96 6.93 5.3 0 0 1024.1 0 16.4 25.8 37.3 97.4 86.0 294.0
22 02:20 5.9 98 7.07 5.6 0 0 1024.6 0 16.7 26.1 37.9 99.0 88.0 301.0
22 02:10 7.2 98 7.7 6.9 0 0 1024.7 0 18.0 26.8 39.9 104.5 95.3 326.7
22 02:00 7 97 7.52 6.6 0 0 1024.3 0 17.6 26.5 39.2 102.7 93.0 318.6
22 01:50 7.3 96 7.59 6.7 0 0 1024.8 0 17.7 26.6 39.4 103.1 93.7 320.9
22 01:40 7.6 96 7.74 7 0 0 1024.8 0 18.0 26.7 39.9 104.4 95.4 327.0
22 01:30 8.2 99 8.29 8.1 0 0 1024.4 0 19.2 27.5 41.9 109.9 102.4 351.5
22 01:20 8 97 8.02 7.6 0 0 1025 0 18.6 27.1 40.9 107.1 98.9 339.2
22 01:10 8.4 99 8.4 8.3 0 0 1025.1 0 19.4 27.7 42.3 110.9 103.7 356.3
22 01:00 8.8 99 8.62 8.7 6 7 1024.8 0 19.9 27.9 43.0 112.9 106.3 365.3
22 00:50 9.2 99 8.84 9.1 6 6 1025.4 0 20.3 28.2 43.8 114.9 108.9 374.6
22 00:40 9.4 99 8.96 9.3 9 9 1025.4 0 20.6 28.3 44.2 116.0 110.4 379.6
22 00:30 9.1 99 8.79 9 7 9 1024.8 0 20.2 28.1 43.6 114.4 108.3 372.4
22 00:20 9.3 99 8.9 9.2 7 9 1025.3 0 20.4 28.2 44.0 115.4 109.6 377.1
22 00:10 9.1 98 8.7 8.8 9 9 1025.4 0 20.0 28.0 43.3 113.4 107.1 368.1
22 00:00 9.1 96 8.52 8.5 9 11 1025 0 19.6 27.6 42.5 111.3 104.5 359.0
21 23:50 9.1 96 8.52 8.5 9 11 1025.5 0 19.6 27.7 42.5 111.4 104.5 359.1
21 23:40 9.7 98 9.04 9.4 13 13 1025.6 0 20.7 28.4 44.4 116.5 111.1 382.2
21 23:30 9.4 97 8.78 8.9 13 13 1025.2 0 20.2 28.0 43.4 113.9 107.8 370.5
21 23:20 9.6 96 8.8 9 11 11 1025.8 0 20.2 28.0 43.4 113.9 107.8 370.8
21 23:10 9.9 96 8.97 9.3 11 13 1025.8 0 20.6 28.2 44.0 115.4 109.8 377.8
21 23:00 10 96 9.02 9.4 15 17 1025.3 0 20.7 28.2 44.1 115.8 110.3 379.6
21 22:50 10.6 96 9.37 10 15 17 1025.8 0 21.4 28.7 45.3 119.0 114.5 394.3
21 22:40 10.7 95 9.33 9.9 15 17 1025.9 0 21.3 28.6 45.1 118.4 113.8 391.8
21 22:30 11.1 95 9.57 10.3 17 19 1025.5 0 21.8 28.8 45.9 120.5 116.6 401.6
21 22:20 11.2 95 9.63 10.4 17 17 1026 0 21.9 28.9 46.1 121.1 117.3 404.3
21 22:10 11.1 95 9.57 10.3 15 17 1026 0 21.8 28.9 45.9 120.6 116.6 401.8
21 22:00 10.7 94 9.23 9.8 13 15 1025.5 0 21.1 28.4 44.7 117.2 112.3 386.7
21 21:50 11.1 92 9.27 9.9 13 13 1026.1 0 21.1 28.3 44.6 117.1 112.4 386.9
21 21:40 11.4 90 9.24 9.8 15 15 1026.1 0 21.1 28.2 44.3 116.3 111.5 383.9
21 21:30 11.8 89 9.37 10 13 15 1025.5 0 21.3 28.3 44.6 117.1 112.7 388.1
21 21:20 12 87 9.27 9.9 13 15 1026 0 21.1 28.0 44.1 115.8 111.0 382.4
21 21:10 12.4 85 9.29 10 15 17 1025.9 0 21.1 28.0 44.0 115.4 110.7 381.3
21 21:00 12.9 82 9.24 9.9 19 24 1025.4 0 21.0 27.7 43.5 114.0 109.3 376.3
21 20:50 13.3 81 9.36 10.1 20 24 1025.8 0 21.2 27.8 43.8 114.8 110.4 380.3
21 20:40 13.6 79 9.3 10 22 26 1025.8 0 21.1 27.6 43.3 113.7 109.2 376.0
21 20:30 13.7 77 9.12 9.7 20 24 1025.2 0 20.7 27.2 42.5 111.5 106.5 366.7
21 20:20 14.2 74 9.04 9.6 19 20 1025.7 0 20.5 27.0 41.9 110.0 104.8 360.8
21 20:10 14.6 74 9.26 10 19 20 1025.6 0 20.9 27.2 42.6 111.8 107.2 369.2
21 20:00 15.2 72 9.35 10.2 24 32 1025.1 0 21.1 27.1 42.6 111.9 107.5 370.5
21 19:50 15.8 70 9.42 10.3 22 24 1025.6 0 21.2 27.1 42.6 111.9 107.7 371.1

Last Refresh: 22-Jan-2022 12:06:39

Bureau of Meteorology